Fungurume Airport


Codes: FZQF/
Name: Fungurume Airport
City: Fungurume
Country: Congo [DRC]
Elevation: 3855 ft.

Photos at Fungurume Airport


   Photos courtesy of SpottingLog. You can add your own sightings and photos by signing up for a free trial today.



No photos found.

Weather at Fungurume Airport


Time (UTC)DescriptionTempratureWindCloud coverageVisibilityPressureHumidity
19-Apr-2024 06:00Overcast Clouds17°C7 mph, SE100%10000m1016hPa96%
19-Apr-2024 09:00Overcast Clouds22°C11 mph, E100%10000m1016hPa76%
19-Apr-2024 12:00Overcast Clouds26°C9 mph, E100%10000m1013hPa60%
19-Apr-2024 15:00Light Rain23°C7 mph, SE100%10000m1013hPa79%
19-Apr-2024 18:00Overcast Clouds18°C2 mph, S100%10000m1015hPa94%
19-Apr-2024 21:00Overcast Clouds17°C2 mph, SW100%10000m1015hPa94%
20-Apr-2024 00:00Overcast Clouds17°C2 mph, S100%10000m1014hPa95%
20-Apr-2024 03:00Overcast Clouds16°C2 mph, SE94%10000m1015hPa96%
20-Apr-2024 06:00Overcast Clouds20°C4 mph, SE95%10000m1016hPa86%
20-Apr-2024 09:00Broken Clouds25°C9 mph, SE74%10000m1014hPa66%
20-Apr-2024 12:00Broken Clouds26°C9 mph, SE65%10000m1011hPa60%
20-Apr-2024 15:00Light Rain23°C4 mph, SE64%10000m1011hPa84%
20-Apr-2024 18:00Light Rain18°C2 mph, SE80%10000m1014hPa93%
20-Apr-2024 21:00Light Rain18°C0 mph, SW100%10000m1015hPa95%
21-Apr-2024 00:00Overcast Clouds17°C2 mph, S91%10000m1014hPa95%
21-Apr-2024 03:00Broken Clouds16°C2 mph, S51%10000m1014hPa96%
21-Apr-2024 06:00Scattered Clouds19°C4 mph, SE50%10000m1016hPa90%
21-Apr-2024 09:00Few Clouds24°C7 mph, E23%10000m1014hPa67%
21-Apr-2024 12:00Scattered Clouds26°C9 mph, E26%10000m1011hPa59%
21-Apr-2024 15:00Light Rain23°C4 mph, E87%10000m1010hPa80%
21-Apr-2024 18:00Scattered Clouds19°C2 mph, S46%10000m1013hPa91%
21-Apr-2024 21:00Few Clouds18°C2 mph, SW21%10000m1014hPa93%
22-Apr-2024 00:00Broken Clouds17°C2 mph, S58%10000m1013hPa95%
22-Apr-2024 03:00Scattered Clouds16°C2 mph, SE30%10000m1014hPa96%
22-Apr-2024 06:00Few Clouds19°C4 mph, SE19%10000m1016hPa84%
22-Apr-2024 09:00Clear Sky25°C9 mph, E8%10000m1014hPa67%
22-Apr-2024 12:00Scattered Clouds26°C7 mph, E29%10000m1011hPa61%
22-Apr-2024 15:00Light Rain23°C2 mph, E97%10000m1011hPa80%
22-Apr-2024 18:00Broken Clouds19°C2 mph, S58%10000m1014hPa91%
22-Apr-2024 21:00Clear Sky18°C2 mph, SW3%10000m1014hPa92%
23-Apr-2024 00:00Clear Sky16°C2 mph, S3%10000m1013hPa88%
23-Apr-2024 03:00Clear Sky15°C2 mph, SW5%10000m1015hPa88%
23-Apr-2024 06:00Clear Sky18°C4 mph, SE2%10000m1016hPa78%
23-Apr-2024 09:00Clear Sky24°C7 mph, E2%10000m1015hPa66%
23-Apr-2024 12:00Scattered Clouds25°C7 mph, SE30%10000m1012hPa67%
23-Apr-2024 15:00Broken Clouds24°C4 mph, SE57%10000m1011hPa74%
23-Apr-2024 18:00Scattered Clouds19°C2 mph, S36%10000m1014hPa89%
23-Apr-2024 21:00Clear Sky18°C2 mph, SW2%10000m1014hPa86%
24-Apr-2024 00:00Clear Sky17°C2 mph, SW10%10000m1013hPa83%
24-Apr-2024 03:00Overcast Clouds16°C2 mph, S95%10000m1014hPa89%